sensor_id;sensor_type;location;lat;lon;timestamp;P1;durP1;ratioP1;P2;durP2;ratioP2
70967;SDS011;58629;48.808;8.820;2024-03-25T00:01:02;5.10;;;1.92;;
70967;SDS011;58629;48.808;8.820;2024-03-25T00:03:28;3.33;;;1.37;;
70967;SDS011;58629;48.808;8.820;2024-03-25T00:05:53;5.03;;;1.70;;
70967;SDS011;58629;48.808;8.820;2024-03-25T00:08:18;4.83;;;1.57;;
70967;SDS011;58629;48.808;8.820;2024-03-25T00:10:44;3.53;;;1.60;;
70967;SDS011;58629;48.808;8.820;2024-03-25T00:13:09;3.70;;;1.50;;
70967;SDS011;58629;48.808;8.820;2024-03-25T00:15:35;4.22;;;1.98;;
70967;SDS011;58629;48.808;8.820;2024-03-25T00:18:02;4.57;;;1.70;;
70967;SDS011;58629;48.808;8.820;2024-03-25T00:20:28;5.85;;;2.00;;
70967;SDS011;58629;48.808;8.820;2024-03-25T00:22:53;3.70;;;1.90;;
70967;SDS011;58629;48.808;8.820;2024-03-25T00:25:19;4.43;;;2.03;;
70967;SDS011;58629;48.808;8.820;2024-03-25T00:27:44;4.57;;;1.80;;
70967;SDS011;58629;48.808;8.820;2024-03-25T00:30:10;5.60;;;2.00;;
70967;SDS011;58629;48.808;8.820;2024-03-25T00:32:36;3.17;;;1.63;;
70967;SDS011;58629;48.808;8.820;2024-03-25T00:35:01;3.10;;;1.43;;
70967;SDS011;58629;48.808;8.820;2024-03-25T00:37:26;4.30;;;1.63;;
70967;SDS011;58629;48.808;8.820;2024-03-25T00:39:52;3.63;;;1.70;;
70967;SDS011;58629;48.808;8.820;2024-03-25T00:42:17;4.20;;;1.80;;
70967;SDS011;58629;48.808;8.820;2024-03-25T00:44:42;4.37;;;1.90;;
70967;SDS011;58629;48.808;8.820;2024-03-25T00:47:08;3.30;;;1.70;;
70967;SDS011;58629;48.808;8.820;2024-03-25T00:49:33;3.40;;;1.90;;
70967;SDS011;58629;48.808;8.820;2024-03-25T00:51:59;3.55;;;1.70;;
70967;SDS011;58629;48.808;8.820;2024-03-25T00:54:25;2.30;;;1.50;;
70967;SDS011;58629;48.808;8.820;2024-03-25T00:56:50;4.50;;;1.83;;
70967;SDS011;58629;48.808;8.820;2024-03-25T00:59:16;2.88;;;1.55;;
70967;SDS011;58629;48.808;8.820;2024-03-25T01:01:42;3.03;;;1.60;;
70967;SDS011;58629;48.808;8.820;2024-03-25T01:04:07;3.27;;;1.90;;
70967;SDS011;58629;48.808;8.820;2024-03-25T01:06:33;5.07;;;1.93;;
70967;SDS011;58629;48.808;8.820;2024-03-25T01:08:58;3.40;;;1.73;;
70967;SDS011;58629;48.808;8.820;2024-03-25T01:11:24;5.22;;;1.85;;
70967;SDS011;58629;48.808;8.820;2024-03-25T01:13:49;3.83;;;1.90;;
70967;SDS011;58629;48.808;8.820;2024-03-25T01:16:15;4.97;;;1.87;;
70967;SDS011;58629;48.808;8.820;2024-03-25T01:18:40;5.60;;;1.90;;
70967;SDS011;58629;48.808;8.820;2024-03-25T01:21:06;3.87;;;1.80;;
70967;SDS011;58629;48.808;8.820;2024-03-25T01:23:31;5.85;;;1.80;;
70967;SDS011;58629;48.808;8.820;2024-03-25T01:25:56;4.43;;;2.00;;
70967;SDS011;58629;48.808;8.820;2024-03-25T01:28:22;5.60;;;1.93;;
70967;SDS011;58629;48.808;8.820;2024-03-25T01:30:47;4.87;;;1.87;;
70967;SDS011;58629;48.808;8.820;2024-03-25T01:33:13;4.25;;;1.88;;
70967;SDS011;58629;48.808;8.820;2024-03-25T01:35:38;5.00;;;1.83;;
70967;SDS011;58629;48.808;8.820;2024-03-25T01:38:04;4.30;;;1.80;;
70967;SDS011;58629;48.808;8.820;2024-03-25T01:40:29;5.80;;;1.97;;
70967;SDS011;58629;48.808;8.820;2024-03-25T01:42:58;5.53;;;2.00;;
70967;SDS011;58629;48.808;8.820;2024-03-25T01:45:24;4.40;;;1.90;;
70967;SDS011;58629;48.808;8.820;2024-03-25T01:47:52;4.53;;;2.08;;
70967;SDS011;58629;48.808;8.820;2024-03-25T01:50:18;3.60;;;1.97;;
70967;SDS011;58629;48.808;8.820;2024-03-25T01:52:44;4.32;;;1.95;;
70967;SDS011;58629;48.808;8.820;2024-03-25T01:55:10;7.03;;;2.03;;
70967;SDS011;58629;48.808;8.820;2024-03-25T01:57:41;6.60;;;2.20;;
70967;SDS011;58629;48.808;8.820;2024-03-25T02:00:08;5.50;;;2.22;;
70967;SDS011;58629;48.808;8.820;2024-03-25T02:02:34;5.03;;;2.30;;
70967;SDS011;58629;48.808;8.820;2024-03-25T02:05:02;5.00;;;2.17;;
70967;SDS011;58629;48.808;8.820;2024-03-25T02:07:28;6.97;;;2.27;;
70967;SDS011;58629;48.808;8.820;2024-03-25T02:09:54;4.45;;;2.05;;
70967;SDS011;58629;48.808;8.820;2024-03-25T02:12:20;4.70;;;1.90;;
70967;SDS011;58629;48.808;8.820;2024-03-25T02:14:47;5.53;;;2.10;;
70967;SDS011;58629;48.808;8.820;2024-03-25T02:17:12;5.23;;;2.20;;
70967;SDS011;58629;48.808;8.820;2024-03-25T02:19:37;5.53;;;2.03;;
70967;SDS011;58629;48.808;8.820;2024-03-25T02:22:05;5.07;;;2.10;;
70967;SDS011;58629;48.808;8.820;2024-03-25T02:24:30;6.83;;;2.40;;
70967;SDS011;58629;48.808;8.820;2024-03-25T02:26:57;5.25;;;2.40;;
70967;SDS011;58629;48.808;8.820;2024-03-25T02:29:22;5.40;;;2.30;;
70967;SDS011;58629;48.808;8.820;2024-03-25T02:31:47;8.37;;;2.57;;
70967;SDS011;58629;48.808;8.820;2024-03-25T02:34:13;5.28;;;2.20;;
70967;SDS011;58629;48.808;8.820;2024-03-25T02:36:38;6.73;;;2.50;;
70967;SDS011;58629;48.808;8.820;2024-03-25T02:39:03;7.50;;;2.60;;
70967;SDS011;58629;48.808;8.820;2024-03-25T02:41:30;4.68;;;2.20;;
70967;SDS011;58629;48.808;8.820;2024-03-25T02:43:56;5.27;;;2.40;;
70967;SDS011;58629;48.808;8.820;2024-03-25T02:46:22;6.55;;;2.30;;
70967;SDS011;58629;48.808;8.820;2024-03-25T02:48:47;4.90;;;2.40;;
70967;SDS011;58629;48.808;8.820;2024-03-25T02:51:13;5.23;;;2.10;;
70967;SDS011;58629;48.808;8.820;2024-03-25T02:53:38;6.27;;;2.20;;
70967;SDS011;58629;48.808;8.820;2024-03-25T02:56:03;4.83;;;1.93;;
70967;SDS011;58629;48.808;8.820;2024-03-25T02:58:29;4.20;;;2.03;;
70967;SDS011;58629;48.808;8.820;2024-03-25T03:00:54;5.83;;;2.63;;
70967;SDS011;58629;48.808;8.820;2024-03-25T03:03:19;6.60;;;2.47;;
70967;SDS011;58629;48.808;8.820;2024-03-25T03:05:45;7.35;;;2.35;;
70967;SDS011;58629;48.808;8.820;2024-03-25T03:08:10;5.60;;;2.42;;
70967;SDS011;58629;48.808;8.820;2024-03-25T03:10:35;4.43;;;2.23;;
70967;SDS011;58629;48.808;8.820;2024-03-25T03:13:01;6.00;;;2.30;;
70967;SDS011;58629;48.808;8.820;2024-03-25T03:15:26;6.13;;;2.33;;
70967;SDS011;58629;48.808;8.820;2024-03-25T03:17:51;4.53;;;1.97;;
70967;SDS011;58629;48.808;8.820;2024-03-25T03:20:17;4.67;;;2.30;;
70967;SDS011;58629;48.808;8.820;2024-03-25T03:22:42;4.00;;;1.90;;
70967;SDS011;58629;48.808;8.820;2024-03-25T03:25:07;5.17;;;2.30;;
70967;SDS011;58629;48.808;8.820;2024-03-25T03:27:33;5.50;;;2.43;;
70967;SDS011;58629;48.808;8.820;2024-03-25T03:29:58;6.57;;;2.20;;
70967;SDS011;58629;48.808;8.820;2024-03-25T03:32:23;5.68;;;2.20;;
70967;SDS011;58629;48.808;8.820;2024-03-25T03:34:49;5.47;;;2.40;;
70967;SDS011;58629;48.808;8.820;2024-03-25T03:37:14;6.73;;;2.20;;
70967;SDS011;58629;48.808;8.820;2024-03-25T03:39:39;4.10;;;2.20;;
70967;SDS011;58629;48.808;8.820;2024-03-25T03:42:05;4.67;;;1.93;;
70967;SDS011;58629;48.808;8.820;2024-03-25T03:44:30;6.27;;;2.20;;
70967;SDS011;58629;48.808;8.820;2024-03-25T03:46:56;6.07;;;2.10;;
70967;SDS011;58629;48.808;8.820;2024-03-25T03:49:21;6.03;;;2.23;;
70967;SDS011;58629;48.808;8.820;2024-03-25T03:51:46;4.87;;;2.20;;
70967;SDS011;58629;48.808;8.820;2024-03-25T03:54:12;8.27;;;2.73;;
70967;SDS011;58629;48.808;8.820;2024-03-25T03:56:37;7.10;;;2.53;;
70967;SDS011;58629;48.808;8.820;2024-03-25T03:59:02;5.57;;;2.43;;
70967;SDS011;58629;48.808;8.820;2024-03-25T04:01:29;6.25;;;2.30;;
70967;SDS011;58629;48.808;8.820;2024-03-25T04:03:54;6.67;;;2.37;;
70967;SDS011;58629;48.808;8.820;2024-03-25T04:06:20;5.80;;;2.35;;
70967;SDS011;58629;48.808;8.820;2024-03-25T04:08:45;5.50;;;2.25;;
70967;SDS011;58629;48.808;8.820;2024-03-25T04:11:10;7.43;;;2.60;;
70967;SDS011;58629;48.808;8.820;2024-03-25T04:13:36;5.80;;;2.63;;
70967;SDS011;58629;48.808;8.820;2024-03-25T04:16:02;5.83;;;2.50;;
70967;SDS011;58629;48.808;8.820;2024-03-25T04:18:29;6.13;;;2.75;;
70967;SDS011;58629;48.808;8.820;2024-03-25T04:20:55;6.17;;;2.70;;
70967;SDS011;58629;48.808;8.820;2024-03-25T04:23:21;7.60;;;2.53;;
70967;SDS011;58629;48.808;8.820;2024-03-25T04:25:46;5.87;;;3.00;;
70967;SDS011;58629;48.808;8.820;2024-03-25T04:28:11;5.57;;;2.40;;
70967;SDS011;58629;48.808;8.820;2024-03-25T04:30:37;7.50;;;2.53;;
70967;SDS011;58629;48.808;8.820;2024-03-25T04:33:02;7.00;;;2.53;;
70967;SDS011;58629;48.808;8.820;2024-03-25T04:35:27;6.73;;;2.63;;
70967;SDS011;58629;48.808;8.820;2024-03-25T04:37:53;5.35;;;2.50;;
70967;SDS011;58629;48.808;8.820;2024-03-25T04:40:22;7.37;;;2.47;;
70967;SDS011;58629;48.808;8.820;2024-03-25T04:42:47;5.95;;;2.60;;
70967;SDS011;58629;48.808;8.820;2024-03-25T04:45:12;6.40;;;2.37;;
70967;SDS011;58629;48.808;8.820;2024-03-25T04:47:38;6.22;;;2.40;;
70967;SDS011;58629;48.808;8.820;2024-03-25T04:50:04;5.43;;;3.00;;
70967;SDS011;58629;48.808;8.820;2024-03-25T04:52:30;7.00;;;2.60;;
70967;SDS011;58629;48.808;8.820;2024-03-25T04:54:55;8.73;;;2.75;;
70967;SDS011;58629;48.808;8.820;2024-03-25T04:57:21;5.57;;;2.80;;
70967;SDS011;58629;48.808;8.820;2024-03-25T04:59:46;7.15;;;2.80;;
70967;SDS011;58629;48.808;8.820;2024-03-25T05:02:11;4.23;;;2.43;;
70967;SDS011;58629;48.808;8.820;2024-03-25T05:04:37;4.90;;;2.60;;
70967;SDS011;58629;48.808;8.820;2024-03-25T05:07:02;6.37;;;2.40;;
70967;SDS011;58629;48.808;8.820;2024-03-25T05:09:28;5.97;;;2.30;;
70967;SDS011;58629;48.808;8.820;2024-03-25T05:11:53;5.57;;;2.37;;
70967;SDS011;58629;48.808;8.820;2024-03-25T05:14:18;6.83;;;2.73;;
70967;SDS011;58629;48.808;8.820;2024-03-25T05:16:43;3.72;;;1.83;;
70967;SDS011;58629;48.808;8.820;2024-03-25T05:19:09;4.10;;;1.70;;
70967;SDS011;58629;48.808;8.820;2024-03-25T05:21:34;4.47;;;2.10;;
70967;SDS011;58629;48.808;8.820;2024-03-25T05:24:00;2.77;;;1.70;;
70967;SDS011;58629;48.808;8.820;2024-03-25T05:26:25;3.88;;;2.15;;
70967;SDS011;58629;48.808;8.820;2024-03-25T05:28:54;5.03;;;2.50;;
70967;SDS011;58629;48.808;8.820;2024-03-25T05:31:20;4.90;;;2.20;;
70967;SDS011;58629;48.808;8.820;2024-03-25T05:33:45;5.47;;;2.33;;
70967;SDS011;58629;48.808;8.820;2024-03-25T05:36:11;4.93;;;2.30;;
70967;SDS011;58629;48.808;8.820;2024-03-25T05:38:36;7.03;;;2.40;;
70967;SDS011;58629;48.808;8.820;2024-03-25T05:41:01;6.83;;;2.90;;
70967;SDS011;58629;48.808;8.820;2024-03-25T05:43:27;6.20;;;2.57;;
70967;SDS011;58629;48.808;8.820;2024-03-25T05:45:55;6.37;;;2.70;;
70967;SDS011;58629;48.808;8.820;2024-03-25T05:48:22;6.85;;;2.33;;
70967;SDS011;58629;48.808;8.820;2024-03-25T05:53:27;5.93;;;2.35;;
70967;SDS011;58629;48.808;8.820;2024-03-25T05:55:53;5.00;;;2.25;;
70967;SDS011;58629;48.808;8.820;2024-03-25T05:58:19;4.53;;;2.13;;
70967;SDS011;58629;48.808;8.820;2024-03-25T06:00:46;5.03;;;2.33;;
70967;SDS011;58629;48.808;8.820;2024-03-25T06:03:12;4.45;;;2.40;;
70967;SDS011;58629;48.808;8.820;2024-03-25T06:05:37;4.23;;;2.13;;
70967;SDS011;58629;48.808;8.820;2024-03-25T06:08:03;5.17;;;2.03;;
70967;SDS011;58629;48.808;8.820;2024-03-25T06:10:28;3.03;;;1.70;;
70967;SDS011;58629;48.808;8.820;2024-03-25T06:12:54;2.97;;;1.48;;
70967;SDS011;58629;48.808;8.820;2024-03-25T06:15:19;2.88;;;1.70;;
70967;SDS011;58629;48.808;8.820;2024-03-25T06:17:44;2.67;;;1.50;;
70967;SDS011;58629;48.808;8.820;2024-03-25T06:20:10;2.60;;;1.30;;
70967;SDS011;58629;48.808;8.820;2024-03-25T06:22:35;6.33;;;2.90;;
70967;SDS011;58629;48.808;8.820;2024-03-25T06:25:01;6.37;;;2.63;;
70967;SDS011;58629;48.808;8.820;2024-03-25T06:27:26;3.77;;;2.10;;
70967;SDS011;58629;48.808;8.820;2024-03-25T06:29:51;4.95;;;2.10;;
70967;SDS011;58629;48.808;8.820;2024-03-25T06:32:37;4.27;;;1.90;;
70967;SDS011;58629;48.808;8.820;2024-03-25T06:35:21;5.13;;;2.40;;
70967;SDS011;58629;48.808;8.820;2024-03-25T06:37:46;6.27;;;2.20;;
70967;SDS011;58629;48.808;8.820;2024-03-25T06:40:11;5.90;;;2.20;;
70967;SDS011;58629;48.808;8.820;2024-03-25T06:42:37;4.95;;;2.10;;
70967;SDS011;58629;48.808;8.820;2024-03-25T06:45:02;6.90;;;2.40;;
70967;SDS011;58629;48.808;8.820;2024-03-25T06:47:27;4.63;;;2.10;;
70967;SDS011;58629;48.808;8.820;2024-03-25T06:49:53;3.90;;;1.93;;
70967;SDS011;58629;48.808;8.820;2024-03-25T06:52:18;6.33;;;2.63;;
70967;SDS011;58629;48.808;8.820;2024-03-25T06:54:43;8.03;;;2.60;;
70967;SDS011;58629;48.808;8.820;2024-03-25T06:57:09;4.43;;;1.97;;
70967;SDS011;58629;48.808;8.820;2024-03-25T06:59:34;5.20;;;2.23;;
70967;SDS011;58629;48.808;8.820;2024-03-25T07:02:02;4.43;;;2.10;;
70967;SDS011;58629;48.808;8.820;2024-03-25T07:04:27;5.43;;;2.70;;
70967;SDS011;58629;48.808;8.820;2024-03-25T07:06:53;5.20;;;2.03;;
70967;SDS011;58629;48.808;8.820;2024-03-25T07:09:18;4.93;;;2.33;;
70967;SDS011;58629;48.808;8.820;2024-03-25T07:11:43;4.47;;;2.53;;
70967;SDS011;58629;48.808;8.820;2024-03-25T07:14:11;5.37;;;2.33;;
70967;SDS011;58629;48.808;8.820;2024-03-25T07:16:37;7.60;;;2.30;;
70967;SDS011;58629;48.808;8.820;2024-03-25T07:19:02;4.93;;;2.13;;
70967;SDS011;58629;48.808;8.820;2024-03-25T07:21:28;3.53;;;1.70;;
70967;SDS011;58629;48.808;8.820;2024-03-25T07:23:53;4.50;;;1.80;;
70967;SDS011;58629;48.808;8.820;2024-03-25T07:26:19;6.30;;;2.28;;
70967;SDS011;58629;48.808;8.820;2024-03-25T07:28:44;5.05;;;2.17;;
70967;SDS011;58629;48.808;8.820;2024-03-25T07:31:09;4.13;;;2.10;;
70967;SDS011;58629;48.808;8.820;2024-03-25T07:33:35;4.77;;;2.10;;
70967;SDS011;58629;48.808;8.820;2024-03-25T07:36:00;4.73;;;2.07;;
70967;SDS011;58629;48.808;8.820;2024-03-25T07:38:26;4.43;;;1.43;;
70967;SDS011;58629;48.808;8.820;2024-03-25T07:40:52;4.85;;;2.08;;
70967;SDS011;58629;48.808;8.820;2024-03-25T07:43:17;2.97;;;1.70;;
70967;SDS011;58629;48.808;8.820;2024-03-25T07:45:43;3.03;;;1.70;;
70967;SDS011;58629;48.808;8.820;2024-03-25T07:48:08;2.63;;;1.60;;
70967;SDS011;58629;48.808;8.820;2024-03-25T07:50:33;5.00;;;1.70;;
70967;SDS011;58629;48.808;8.820;2024-03-25T07:52:58;5.50;;;1.73;;
70967;SDS011;58629;48.808;8.820;2024-03-25T07:55:24;3.53;;;1.70;;
70967;SDS011;58629;48.808;8.820;2024-03-25T07:57:49;4.60;;;1.53;;
70967;SDS011;58629;48.808;8.820;2024-03-25T08:00:14;2.93;;;1.60;;
70967;SDS011;58629;48.808;8.820;2024-03-25T08:02:40;5.32;;;2.13;;
70967;SDS011;58629;48.808;8.820;2024-03-25T08:05:05;4.28;;;1.63;;
70967;SDS011;58629;48.808;8.820;2024-03-25T08:07:31;4.60;;;1.70;;
70967;SDS011;58629;48.808;8.820;2024-03-25T08:09:57;2.65;;;1.40;;
70967;SDS011;58629;48.808;8.820;2024-03-25T08:12:22;3.57;;;1.30;;
70967;SDS011;58629;48.808;8.820;2024-03-25T08:14:47;3.97;;;1.43;;
70967;SDS011;58629;48.808;8.820;2024-03-25T08:17:13;3.07;;;1.27;;
70967;SDS011;58629;48.808;8.820;2024-03-25T08:19:38;1.97;;;1.10;;
70967;SDS011;58629;48.808;8.820;2024-03-25T08:22:03;1.83;;;1.10;;
70967;SDS011;58629;48.808;8.820;2024-03-25T08:24:29;1.83;;;0.80;;
70967;SDS011;58629;48.808;8.820;2024-03-25T08:26:54;3.37;;;1.20;;
70967;SDS011;58629;48.808;8.820;2024-03-25T08:29:19;3.20;;;1.10;;
70967;SDS011;58629;48.808;8.820;2024-03-25T08:31:45;3.37;;;0.90;;
70967;SDS011;58629;48.808;8.820;2024-03-25T08:34:10;2.50;;;0.60;;
70967;SDS011;58629;48.808;8.820;2024-03-25T08:36:35;1.30;;;0.50;;
70967;SDS011;58629;48.808;8.820;2024-03-25T08:39:01;3.33;;;0.77;;
70967;SDS011;58629;48.808;8.820;2024-03-25T08:41:26;2.07;;;0.70;;
70967;SDS011;58629;48.808;8.820;2024-03-25T08:43:51;1.30;;;0.57;;
70967;SDS011;58629;48.808;8.820;2024-03-25T08:46:17;1.83;;;0.60;;
70967;SDS011;58629;48.808;8.820;2024-03-25T08:48:42;1.00;;;0.50;;
70967;SDS011;58629;48.808;8.820;2024-03-25T08:51:07;1.40;;;0.60;;
70967;SDS011;58629;48.808;8.820;2024-03-25T08:53:33;1.53;;;0.60;;
70967;SDS011;58629;48.808;8.820;2024-03-25T08:55:58;2.60;;;0.70;;
70967;SDS011;58629;48.808;8.820;2024-03-25T08:58:24;1.52;;;0.60;;
70967;SDS011;58629;48.808;8.820;2024-03-25T09:00:49;2.50;;;0.70;;
70967;SDS011;58629;48.808;8.820;2024-03-25T09:03:14;3.17;;;1.23;;
70967;SDS011;58629;48.808;8.820;2024-03-25T09:05:40;3.33;;;1.23;;
70967;SDS011;58629;48.808;8.820;2024-03-25T09:08:05;3.03;;;1.00;;
70967;SDS011;58629;48.808;8.820;2024-03-25T09:10:31;1.63;;;0.90;;
70967;SDS011;58629;48.808;8.820;2024-03-25T09:13:15;2.67;;;0.90;;
70967;SDS011;58629;48.808;8.820;2024-03-25T09:15:40;2.65;;;0.98;;
70967;SDS011;58629;48.808;8.820;2024-03-25T09:18:06;2.00;;;1.00;;
70967;SDS011;58629;48.808;8.820;2024-03-25T09:20:31;3.77;;;0.97;;
70967;SDS011;58629;48.808;8.820;2024-03-25T09:22:56;3.10;;;1.07;;
70967;SDS011;58629;48.808;8.820;2024-03-25T09:25:22;3.30;;;0.90;;
70967;SDS011;58629;48.808;8.820;2024-03-25T09:27:48;2.97;;;0.80;;
70967;SDS011;58629;48.808;8.820;2024-03-25T09:30:14;1.80;;;0.70;;
70967;SDS011;58629;48.808;8.820;2024-03-25T09:32:42;2.97;;;0.80;;
70967;SDS011;58629;48.808;8.820;2024-03-25T09:35:08;2.55;;;0.60;;
70967;SDS011;58629;48.808;8.820;2024-03-25T09:37:34;2.13;;;0.50;;
70967;SDS011;58629;48.808;8.820;2024-03-25T09:40:00;1.10;;;0.70;;
70967;SDS011;58629;48.808;8.820;2024-03-25T09:42:26;2.20;;;0.70;;
70967;SDS011;58629;48.808;8.820;2024-03-25T09:44:55;1.50;;;0.60;;
70967;SDS011;58629;48.808;8.820;2024-03-25T09:47:21;1.00;;;0.60;;
70967;SDS011;58629;48.808;8.820;2024-03-25T09:49:47;1.45;;;0.60;;
70967;SDS011;58629;48.808;8.820;2024-03-25T09:52:16;1.23;;;0.70;;
70967;SDS011;58629;48.808;8.820;2024-03-25T09:54:42;2.75;;;1.40;;
70967;SDS011;58629;48.808;8.820;2024-03-25T09:57:08;2.17;;;0.77;;
70967;SDS011;58629;48.808;8.820;2024-03-25T09:59:34;1.33;;;0.55;;
70967;SDS011;58629;48.808;8.820;2024-03-25T10:01:59;0.98;;;0.60;;
70967;SDS011;58629;48.808;8.820;2024-03-25T10:04:26;2.10;;;0.80;;
70967;SDS011;58629;48.808;8.820;2024-03-25T10:06:52;2.15;;;1.00;;
70967;SDS011;58629;48.808;8.820;2024-03-25T10:09:21;2.17;;;0.90;;
70967;SDS011;58629;48.808;8.820;2024-03-25T10:11:50;2.65;;;1.00;;
70967;SDS011;58629;48.808;8.820;2024-03-25T10:14:15;1.60;;;0.85;;
70967;SDS011;58629;48.808;8.820;2024-03-25T10:16:41;1.83;;;0.90;;
70967;SDS011;58629;48.808;8.820;2024-03-25T10:19:07;3.00;;;1.00;;
70967;SDS011;58629;48.808;8.820;2024-03-25T10:21:33;2.58;;;0.90;;
70967;SDS011;58629;48.808;8.820;2024-03-25T10:23:58;2.07;;;1.00;;
70967;SDS011;58629;48.808;8.820;2024-03-25T10:26:27;1.80;;;0.90;;
70967;SDS011;58629;48.808;8.820;2024-03-25T10:29:03;1.35;;;0.70;;
70967;SDS011;58629;48.808;8.820;2024-03-25T10:31:32;1.33;;;0.65;;
70967;SDS011;58629;48.808;8.820;2024-03-25T10:33:57;1.60;;;0.80;;
70967;SDS011;58629;48.808;8.820;2024-03-25T10:36:23;2.47;;;0.90;;
70967;SDS011;58629;48.808;8.820;2024-03-25T10:38:53;2.63;;;1.05;;
70967;SDS011;58629;48.808;8.820;2024-03-25T10:41:20;3.73;;;1.10;;
70967;SDS011;58629;48.808;8.820;2024-03-25T10:43:47;1.70;;;0.80;;
70967;SDS011;58629;48.808;8.820;2024-03-25T10:46:15;2.58;;;1.13;;
70967;SDS011;58629;48.808;8.820;2024-03-25T10:48:47;1.17;;;0.73;;
70967;SDS011;58629;48.808;8.820;2024-03-25T10:51:24;1.50;;;0.80;;
70967;SDS011;58629;48.808;8.820;2024-03-25T10:53:51;1.75;;;1.10;;
70967;SDS011;58629;48.808;8.820;2024-03-25T10:56:19;1.40;;;1.08;;
70967;SDS011;58629;48.808;8.820;2024-03-25T10:58:46;2.65;;;0.95;;
70967;SDS011;58629;48.808;8.820;2024-03-25T11:01:17;2.17;;;0.90;;
70967;SDS011;58629;48.808;8.820;2024-03-25T11:03:44;1.40;;;0.82;;
70967;SDS011;58629;48.808;8.820;2024-03-25T11:06:11;2.40;;;1.10;;
70967;SDS011;58629;48.808;8.820;2024-03-25T11:08:37;2.00;;;0.98;;
70967;SDS011;58629;48.808;8.820;2024-03-25T11:11:03;1.85;;;1.00;;
70967;SDS011;58629;48.808;8.820;2024-03-25T11:13:30;3.55;;;0.90;;
70967;SDS011;58629;48.808;8.820;2024-03-25T11:15:56;2.05;;;0.90;;
70967;SDS011;58629;48.808;8.820;2024-03-25T11:18:24;1.33;;;0.82;;
70967;SDS011;58629;48.808;8.820;2024-03-25T11:21:03;0.98;;;0.65;;
70967;SDS011;58629;48.808;8.820;2024-03-25T11:23:37;1.73;;;1.00;;
70967;SDS011;58629;48.808;8.820;2024-03-25T11:26:15;1.87;;;0.93;;
70967;SDS011;58629;48.808;8.820;2024-03-25T11:28:43;1.65;;;0.75;;
70967;SDS011;58629;48.808;8.820;2024-03-25T11:31:08;1.93;;;0.90;;
70967;SDS011;58629;48.808;8.820;2024-03-25T11:33:36;1.38;;;0.90;;
70967;SDS011;58629;48.808;8.820;2024-03-25T11:36:02;2.10;;;1.17;;
70967;SDS011;58629;48.808;8.820;2024-03-25T11:38:29;3.13;;;1.30;;
70967;SDS011;58629;48.808;8.820;2024-03-25T11:40:54;2.30;;;1.03;;
70967;SDS011;58629;48.808;8.820;2024-03-25T11:43:21;1.73;;;1.10;;
70967;SDS011;58629;48.808;8.820;2024-03-25T11:45:47;1.63;;;1.17;;
70967;SDS011;58629;48.808;8.820;2024-03-25T11:48:16;2.63;;;1.00;;
70967;SDS011;58629;48.808;8.820;2024-03-25T11:50:44;1.37;;;0.90;;
70967;SDS011;58629;48.808;8.820;2024-03-25T11:53:12;3.35;;;1.40;;
70967;SDS011;58629;48.808;8.820;2024-03-25T11:55:38;2.75;;;1.00;;
70967;SDS011;58629;48.808;8.820;2024-03-25T11:58:04;2.05;;;1.10;;
70967;SDS011;58629;48.808;8.820;2024-03-25T12:00:29;1.60;;;1.00;;
70967;SDS011;58629;48.808;8.820;2024-03-25T12:02:56;3.53;;;1.52;;
70967;SDS011;58629;48.808;8.820;2024-03-25T12:05:21;2.20;;;1.40;;
70967;SDS011;58629;48.808;8.820;2024-03-25T12:07:47;1.50;;;1.10;;
70967;SDS011;58629;48.808;8.820;2024-03-25T12:10:15;1.90;;;1.23;;
70967;SDS011;58629;48.808;8.820;2024-03-25T12:12:59;2.13;;;1.17;;
70967;SDS011;58629;48.808;8.820;2024-03-25T12:15:24;2.50;;;1.30;;
70967;SDS011;58629;48.808;8.820;2024-03-25T12:17:51;3.08;;;2.22;;
70967;SDS011;58629;48.808;8.820;2024-03-25T12:20:17;2.20;;;1.20;;
70967;SDS011;58629;48.808;8.820;2024-03-25T12:22:43;2.73;;;1.40;;
70967;SDS011;58629;48.808;8.820;2024-03-25T12:25:09;2.92;;;1.88;;
70967;SDS011;58629;48.808;8.820;2024-03-25T12:27:38;2.23;;;1.27;;
70967;SDS011;58629;48.808;8.820;2024-03-25T12:30:08;1.92;;;1.10;;
70967;SDS011;58629;48.808;8.820;2024-03-25T12:32:44;1.90;;;1.30;;
70967;SDS011;58629;48.808;8.820;2024-03-25T12:35:13;2.40;;;1.30;;
70967;SDS011;58629;48.808;8.820;2024-03-25T12:37:43;2.60;;;1.60;;
70967;SDS011;58629;48.808;8.820;2024-03-25T12:40:11;1.40;;;1.08;;
70967;SDS011;58629;48.808;8.820;2024-03-25T12:42:37;3.10;;;1.35;;
70967;SDS011;58629;48.808;8.820;2024-03-25T12:45:06;1.55;;;1.10;;
70967;SDS011;58629;48.808;8.820;2024-03-25T12:47:32;2.17;;;1.00;;
70967;SDS011;58629;48.808;8.820;2024-03-25T12:49:58;2.55;;;1.17;;
70967;SDS011;58629;48.808;8.820;2024-03-25T12:52:24;3.37;;;1.40;;
70967;SDS011;58629;48.808;8.820;2024-03-25T12:54:49;2.28;;;1.10;;
70967;SDS011;58629;48.808;8.820;2024-03-25T12:57:14;1.80;;;0.93;;
70967;SDS011;58629;48.808;8.820;2024-03-25T12:59:40;2.53;;;0.93;;
70967;SDS011;58629;48.808;8.820;2024-03-25T13:02:06;2.67;;;1.10;;
70967;SDS011;58629;48.808;8.820;2024-03-25T13:04:35;1.88;;;1.00;;
70967;SDS011;58629;48.808;8.820;2024-03-25T13:07:02;3.97;;;1.40;;
70967;SDS011;58629;48.808;8.820;2024-03-25T13:09:28;2.30;;;1.30;;
70967;SDS011;58629;48.808;8.820;2024-03-25T13:11:54;2.27;;;1.27;;
70967;SDS011;58629;48.808;8.820;2024-03-25T13:14:20;2.65;;;1.00;;
70967;SDS011;58629;48.808;8.820;2024-03-25T13:16:46;4.07;;;1.80;;
70967;SDS011;58629;48.808;8.820;2024-03-25T13:19:12;2.88;;;1.60;;
70967;SDS011;58629;48.808;8.820;2024-03-25T13:21:37;3.77;;;1.50;;
70967;SDS011;58629;48.808;8.820;2024-03-25T13:24:03;3.03;;;1.50;;
70967;SDS011;58629;48.808;8.820;2024-03-25T13:26:28;2.88;;;1.50;;
70967;SDS011;58629;48.808;8.820;2024-03-25T13:28:53;2.73;;;1.27;;
70967;SDS011;58629;48.808;8.820;2024-03-25T13:31:19;1.37;;;1.17;;
70967;SDS011;58629;48.808;8.820;2024-03-25T13:33:44;3.03;;;1.10;;
70967;SDS011;58629;48.808;8.820;2024-03-25T13:36:10;2.60;;;1.40;;
70967;SDS011;58629;48.808;8.820;2024-03-25T13:38:35;3.00;;;1.40;;
70967;SDS011;58629;48.808;8.820;2024-03-25T13:41:01;2.08;;;1.15;;
70967;SDS011;58629;48.808;8.820;2024-03-25T13:43:27;2.03;;;1.13;;
70967;SDS011;58629;48.808;8.820;2024-03-25T13:45:52;2.27;;;1.20;;
70967;SDS011;58629;48.808;8.820;2024-03-25T13:48:18;2.17;;;1.30;;
70967;SDS011;58629;48.808;8.820;2024-03-25T13:50:43;2.97;;;1.70;;
70967;SDS011;58629;48.808;8.820;2024-03-25T13:53:09;2.33;;;1.43;;
70967;SDS011;58629;48.808;8.820;2024-03-25T13:55:35;2.45;;;1.60;;
70967;SDS011;58629;48.808;8.820;2024-03-25T13:58:00;2.45;;;1.40;;
70967;SDS011;58629;48.808;8.820;2024-03-25T14:00:25;3.43;;;1.70;;
70967;SDS011;58629;48.808;8.820;2024-03-25T14:02:53;2.03;;;1.40;;
70967;SDS011;58629;48.808;8.820;2024-03-25T14:05:21;2.00;;;1.40;;
70967;SDS011;58629;48.808;8.820;2024-03-25T14:07:48;3.55;;;1.63;;
70967;SDS011;58629;48.808;8.820;2024-03-25T14:10:14;2.67;;;1.50;;
70967;SDS011;58629;48.808;8.820;2024-03-25T14:12:39;3.13;;;1.50;;
70967;SDS011;58629;48.808;8.820;2024-03-25T14:15:05;3.60;;;1.95;;
70967;SDS011;58629;48.808;8.820;2024-03-25T14:17:31;1.50;;;1.20;;
70967;SDS011;58629;48.808;8.820;2024-03-25T14:19:57;2.80;;;1.50;;
70967;SDS011;58629;48.808;8.820;2024-03-25T14:22:22;2.43;;;1.60;;
70967;SDS011;58629;48.808;8.820;2024-03-25T14:24:47;2.83;;;1.70;;
70967;SDS011;58629;48.808;8.820;2024-03-25T14:27:13;4.47;;;2.10;;
70967;SDS011;58629;48.808;8.820;2024-03-25T14:29:39;3.05;;;1.40;;
70967;SDS011;58629;48.808;8.820;2024-03-25T14:32:04;2.67;;;1.30;;
70967;SDS011;58629;48.808;8.820;2024-03-25T14:34:29;1.40;;;1.00;;
70967;SDS011;58629;48.808;8.820;2024-03-25T14:36:55;2.57;;;1.10;;
70967;SDS011;58629;48.808;8.820;2024-03-25T14:39:22;3.80;;;1.20;;
70967;SDS011;58629;48.808;8.820;2024-03-25T14:41:47;1.35;;;0.77;;
70967;SDS011;58629;48.808;8.820;2024-03-25T14:44:13;2.13;;;1.20;;